Terminal Aerodrome Forecast
Issued by NWS

Home | Current Version | Previous Version | Text Only | Print | Product List | Glossary On
Versions: 1 2 3 4 5 6 7 8 9 10 11 12 13 14 15 16 17 18
000
FTUS44 KEPZ 181804 CCB
TAFLRU
TAF COR
KLRU 181804Z 1818/1918 20008KT P6SM SCT050 SCT100 BKN250
     FM181900 25017G27KT P6SM SCT050 SCT100 BKN250
      TEMPO 1900/1904 26023G33KT
     FM190600 23015G25KT P6SM VCSH SCT060 SCT100 BKN250=

USA.gov is the U.S. government's official web portal to all federal, state and local government web resources and services.